sensor_id;sensor_type;location;lat;lon;timestamp;pressure;altitude;pressure_sealevel;temperature;humidity
76060;BME280;64759;52.220;5.170;2023-01-31T00:01:14;102403.19;;;4.55;76.67
76060;BME280;64759;52.220;5.170;2023-01-31T00:03:40;102403.97;;;4.57;76.97
76060;BME280;64759;52.220;5.170;2023-01-31T00:06:12;102394.63;;;4.56;76.42
76060;BME280;64759;52.220;5.170;2023-01-31T00:08:39;102385.19;;;4.56;76.85
76060;BME280;64759;52.220;5.170;2023-01-31T00:11:04;102389.56;;;4.54;77.38
76060;BME280;64759;52.220;5.170;2023-01-31T00:13:30;102391.22;;;4.55;76.21
76060;BME280;64759;52.220;5.170;2023-01-31T00:15:56;102394.84;;;4.50;77.22
76060;BME280;64759;52.220;5.170;2023-01-31T00:18:21;102376.00;;;4.51;77.14
76060;BME280;64759;52.220;5.170;2023-01-31T00:20:47;102373.66;;;4.46;76.80
76060;BME280;64759;52.220;5.170;2023-01-31T00:23:13;102358.47;;;4.42;77.33
76060;BME280;64759;52.220;5.170;2023-01-31T00:25:38;102349.84;;;4.43;76.91
76060;BME280;64759;52.220;5.170;2023-01-31T00:28:03;102343.00;;;4.43;77.26
76060;BME280;64759;52.220;5.170;2023-01-31T00:30:29;102344.72;;;4.43;77.63
76060;BME280;64759;52.220;5.170;2023-01-31T00:32:54;102338.81;;;4.41;77.17
76060;BME280;64759;52.220;5.170;2023-01-31T00:35:23;102329.53;;;4.38;77.05
76060;BME280;64759;52.220;5.170;2023-01-31T00:37:48;102314.53;;;4.29;78.00
76060;BME280;64759;52.220;5.170;2023-01-31T00:40:13;102310.63;;;4.21;78.14
76060;BME280;64759;52.220;5.170;2023-01-31T00:42:39;102314.78;;;4.23;78.02
76060;BME280;64759;52.220;5.170;2023-01-31T00:45:05;102319.06;;;4.23;77.57
76060;BME280;64759;52.220;5.170;2023-01-31T00:47:31;102302.09;;;4.20;78.07
76060;BME280;64759;52.220;5.170;2023-01-31T00:49:56;102303.84;;;4.20;78.04
76060;BME280;64759;52.220;5.170;2023-01-31T00:52:21;102305.38;;;4.24;78.53
76060;BME280;64759;52.220;5.170;2023-01-31T00:54:47;102298.56;;;4.23;78.56
76060;BME280;64759;52.220;5.170;2023-01-31T00:57:12;102299.34;;;4.25;77.98
76060;BME280;64759;52.220;5.170;2023-01-31T00:59:38;102302.09;;;4.20;77.98
76060;BME280;64759;52.220;5.170;2023-01-31T01:02:04;102301.28;;;4.20;77.97
76060;BME280;64759;52.220;5.170;2023-01-31T01:04:30;102296.16;;;4.20;78.19
76060;BME280;64759;52.220;5.170;2023-01-31T01:06:57;102297.88;;;4.19;77.90
76060;BME280;64759;52.220;5.170;2023-01-31T01:09:22;102298.72;;;4.20;77.94
76060;BME280;64759;52.220;5.170;2023-01-31T01:11:48;102292.94;;;4.15;78.34
76060;BME280;64759;52.220;5.170;2023-01-31T01:14:13;102292.94;;;4.15;78.77
76060;BME280;64759;52.220;5.170;2023-01-31T01:16:39;102287.81;;;4.15;78.19
76060;BME280;64759;52.220;5.170;2023-01-31T01:19:09;102297.03;;;4.19;77.93
76060;BME280;64759;52.220;5.170;2023-01-31T01:21:36;102292.94;;;4.15;78.53
76060;BME280;64759;52.220;5.170;2023-01-31T01:24:04;102297.25;;;4.14;78.42
76060;BME280;64759;52.220;5.170;2023-01-31T01:26:32;102295.50;;;4.15;78.23
76060;BME280;64759;52.220;5.170;2023-01-31T01:28:59;102296.72;;;4.06;78.67
76060;BME280;64759;52.220;5.170;2023-01-31T01:31:26;102298.84;;;4.17;78.48
76060;BME280;64759;52.220;5.170;2023-01-31T01:34:00;102298.44;;;4.06;78.24
76060;BME280;64759;52.220;5.170;2023-01-31T01:36:26;102298.44;;;4.06;78.07
76060;BME280;64759;52.220;5.170;2023-01-31T01:38:52;102296.19;;;3.98;79.02
76060;BME280;64759;52.220;5.170;2023-01-31T01:41:18;102298.72;;;4.00;78.66
76060;BME280;64759;52.220;5.170;2023-01-31T01:43:53;102303.06;;;3.97;78.79
76060;BME280;64759;52.220;5.170;2023-01-31T01:46:26;102305.84;;;3.93;79.18
76060;BME280;64759;52.220;5.170;2023-01-31T01:48:58;102310.03;;;3.94;79.03
76060;BME280;64759;52.220;5.170;2023-01-31T01:51:26;102316.84;;;3.95;79.17
76060;BME280;64759;52.220;5.170;2023-01-31T01:53:54;102315.13;;;3.95;79.64
76060;BME280;64759;52.220;5.170;2023-01-31T01:56:28;102310.50;;;4.04;79.11
76060;BME280;64759;52.220;5.170;2023-01-31T01:59:03;102312.19;;;4.05;79.38
76060;BME280;64759;52.220;5.170;2023-01-31T02:01:35;102317.09;;;4.09;78.91
76060;BME280;64759;52.220;5.170;2023-01-31T02:04:07;102305.81;;;4.13;79.07
76060;BME280;64759;52.220;5.170;2023-01-31T02:06:34;102297.16;;;4.16;79.21
76060;BME280;64759;52.220;5.170;2023-01-31T02:09:00;102302.03;;;4.22;79.20
76060;BME280;64759;52.220;5.170;2023-01-31T02:11:29;102308.13;;;4.19;79.25
76060;BME280;64759;52.220;5.170;2023-01-31T02:14:07;102302.03;;;4.22;79.45
76060;BME280;64759;52.220;5.170;2023-01-31T02:16:33;102306.66;;;4.34;78.94
76060;BME280;64759;52.220;5.170;2023-01-31T02:18:59;102310.63;;;4.41;79.19
76060;BME280;64759;52.220;5.170;2023-01-31T02:27:44;102304.19;;;4.51;79.99
76060;BME280;64759;52.220;5.170;2023-01-31T02:30:27;102301.88;;;4.45;80.26
76060;BME280;64759;52.220;5.170;2023-01-31T02:33:04;102290.84;;;4.43;80.12
76060;BME280;64759;52.220;5.170;2023-01-31T02:35:50;102281.09;;;4.51;80.47
76060;BME280;64759;52.220;5.170;2023-01-31T02:38:26;102286.66;;;4.42;81.04
76060;BME280;64759;52.220;5.170;2023-01-31T02:44:06;102278.25;;;4.57;81.30
76060;BME280;64759;52.220;5.170;2023-01-31T02:47:14;102270.56;;;4.57;81.63
76060;BME280;64759;52.220;5.170;2023-01-31T02:53:11;102263.44;;;4.63;82.42
76060;BME280;64759;52.220;5.170;2023-01-31T02:55:57;102259.28;;;4.61;81.97
76060;BME280;64759;52.220;5.170;2023-01-31T02:59:08;102261.91;;;4.59;82.66
76060;BME280;64759;52.220;5.170;2023-01-31T03:01:39;102271.19;;;4.62;81.89
76060;BME280;64759;52.220;5.170;2023-01-31T03:04:12;102273.50;;;4.68;82.80
76060;BME280;64759;52.220;5.170;2023-01-31T03:06:49;102269.75;;;4.75;82.67
76060;BME280;64759;52.220;5.170;2023-01-31T03:15:33;102247.19;;;4.82;82.66
76060;BME280;64759;52.220;5.170;2023-01-31T03:18:29;102248.75;;;4.86;82.66
76060;BME280;64759;52.220;5.170;2023-01-31T03:21:12;102253.44;;;4.95;82.44
76060;BME280;64759;52.220;5.170;2023-01-31T03:23:40;102250.25;;;4.90;83.18
76060;BME280;64759;52.220;5.170;2023-01-31T03:26:08;102255.94;;;4.96;83.16
76060;BME280;64759;52.220;5.170;2023-01-31T03:28:35;102250.78;;;4.96;83.77
76060;BME280;64759;52.220;5.170;2023-01-31T03:31:29;102247.34;;;4.97;82.95
76060;BME280;64759;52.220;5.170;2023-01-31T03:34:03;102238.16;;;4.92;83.83
76060;BME280;64759;52.220;5.170;2023-01-31T03:36:45;102232.91;;;4.95;83.26
76060;BME280;64759;52.220;5.170;2023-01-31T03:40:03;102209.16;;;5.08;83.80
76060;BME280;64759;52.220;5.170;2023-01-31T03:45:45;102209.09;;;5.10;84.81
76060;BME280;64759;52.220;5.170;2023-01-31T03:48:14;102213.09;;;5.15;83.84
76060;BME280;64759;52.220;5.170;2023-01-31T03:50:50;102213.94;;;5.16;84.26
76060;BME280;64759;52.220;5.170;2023-01-31T03:56:16;102210.22;;;5.21;84.47
76060;BME280;64759;52.220;5.170;2023-01-31T03:58:47;102207.06;;;5.34;83.50
76060;BME280;64759;52.220;5.170;2023-01-31T04:01:17;102198.00;;;5.26;84.74
76060;BME280;64759;52.220;5.170;2023-01-31T04:03:57;102203.97;;;5.27;84.43
76060;BME280;64759;52.220;5.170;2023-01-31T04:06:23;102196.19;;;5.28;84.34
76060;BME280;64759;52.220;5.170;2023-01-31T04:08:50;102195.53;;;5.25;84.42
76060;BME280;64759;52.220;5.170;2023-01-31T04:11:19;102191.75;;;5.32;84.73
76060;BME280;64759;52.220;5.170;2023-01-31T04:13:45;102192.50;;;5.34;84.27
76060;BME280;64759;52.220;5.170;2023-01-31T04:16:11;102189.09;;;5.34;84.26
76060;BME280;64759;52.220;5.170;2023-01-31T04:18:36;102190.16;;;5.29;84.63
76060;BME280;64759;52.220;5.170;2023-01-31T04:21:02;102178.59;;;5.38;85.00
76060;BME280;64759;52.220;5.170;2023-01-31T04:23:27;102179.03;;;5.46;84.45
76060;BME280;64759;52.220;5.170;2023-01-31T04:25:53;102175.88;;;5.41;84.67
76060;BME280;64759;52.220;5.170;2023-01-31T04:28:21;102178.22;;;5.46;84.54
76060;BME280;64759;52.220;5.170;2023-01-31T04:30:54;102178.00;;;5.50;84.45
76060;BME280;64759;52.220;5.170;2023-01-31T04:33:20;102173.91;;;5.46;84.05
76060;BME280;64759;52.220;5.170;2023-01-31T04:35:46;102182.00;;;5.56;83.99
76060;BME280;64759;52.220;5.170;2023-01-31T04:38:11;102173.63;;;5.52;83.96
76060;BME280;64759;52.220;5.170;2023-01-31T04:40:36;102170.13;;;5.53;83.92
76060;BME280;64759;52.220;5.170;2023-01-31T04:43:02;102172.78;;;5.52;84.11
76060;BME280;64759;52.220;5.170;2023-01-31T04:45:28;102170.81;;;5.57;84.16
76060;BME280;64759;52.220;5.170;2023-01-31T04:47:53;102168.16;;;5.58;84.31
76060;BME280;64759;52.220;5.170;2023-01-31T04:50:19;102171.88;;;5.53;84.21
76060;BME280;64759;52.220;5.170;2023-01-31T04:52:44;102162.88;;;5.44;84.13
76060;BME280;64759;52.220;5.170;2023-01-31T04:55:11;102166.50;;;5.57;83.74
76060;BME280;64759;52.220;5.170;2023-01-31T04:57:37;102166.56;;;5.56;83.71
76060;BME280;64759;52.220;5.170;2023-01-31T05:00:03;102160.63;;;5.55;83.55
76060;BME280;64759;52.220;5.170;2023-01-31T05:02:29;102158.06;;;5.55;83.73
76060;BME280;64759;52.220;5.170;2023-01-31T05:04:55;102155.69;;;5.51;84.25
76060;BME280;64759;52.220;5.170;2023-01-31T05:07:20;102159.84;;;5.53;83.90
76060;BME280;64759;52.220;5.170;2023-01-31T05:09:45;102159.19;;;5.50;84.28
76060;BME280;64759;52.220;5.170;2023-01-31T05:12:11;102153.22;;;5.49;83.56
76060;BME280;64759;52.220;5.170;2023-01-31T05:14:36;102151.34;;;5.53;84.29
76060;BME280;64759;52.220;5.170;2023-01-31T05:17:02;102156.75;;;5.47;84.20
76060;BME280;64759;52.220;5.170;2023-01-31T05:19:27;102157.66;;;5.46;84.45
76060;BME280;64759;52.220;5.170;2023-01-31T05:21:52;102155.53;;;5.54;83.67
76060;BME280;64759;52.220;5.170;2023-01-31T05:24:26;102151.38;;;5.51;83.80
76060;BME280;64759;52.220;5.170;2023-01-31T05:26:53;102153.72;;;5.56;83.71
76060;BME280;64759;52.220;5.170;2023-01-31T05:29:25;102143.16;;;5.62;83.22
76060;BME280;64759;52.220;5.170;2023-01-31T05:31:52;102133.13;;;5.57;83.50
76060;BME280;64759;52.220;5.170;2023-01-31T05:34:18;102139.47;;;5.50;83.53
76060;BME280;64759;52.220;5.170;2023-01-31T05:36:43;102139.97;;;5.57;nan
76060;BME280;64759;52.220;5.170;2023-01-31T05:39:09;102141.81;;;5.55;84.21
76060;BME280;64759;52.220;5.170;2023-01-31T05:41:34;102140.28;;;5.51;83.95
76060;BME280;64759;52.220;5.170;2023-01-31T05:44:00;102148.34;;;5.60;83.64
76060;BME280;64759;52.220;5.170;2023-01-31T05:46:25;102137.03;;;5.64;83.66
76060;BME280;64759;52.220;5.170;2023-01-31T05:48:51;102130.69;;;5.54;83.98
76060;BME280;64759;52.220;5.170;2023-01-31T05:51:16;102127.44;;;5.51;84.08
76060;BME280;64759;52.220;5.170;2023-01-31T05:53:42;102131.69;;;5.52;83.92
76060;BME280;64759;52.220;5.170;2023-01-31T05:56:07;102129.78;;;5.55;84.18
76060;BME280;64759;52.220;5.170;2023-01-31T05:58:32;102130.69;;;5.54;84.41
76060;BME280;64759;52.220;5.170;2023-01-31T06:00:58;102128.75;;;5.42;84.73
76060;BME280;64759;52.220;5.170;2023-01-31T06:03:23;102125.94;;;5.47;84.37
76060;BME280;64759;52.220;5.170;2023-01-31T06:05:49;102116.16;;;5.53;84.11
76060;BME280;64759;52.220;5.170;2023-01-31T06:08:14;102110.22;;;5.53;83.86
76060;BME280;64759;52.220;5.170;2023-01-31T06:10:39;102105.75;;;5.56;84.08
76060;BME280;64759;52.220;5.170;2023-01-31T06:13:05;102099.16;;;5.51;84.33
76060;BME280;64759;52.220;5.170;2023-01-31T06:15:32;102102.28;;;5.57;85.20
76060;BME280;64759;52.220;5.170;2023-01-31T06:17:57;102109.44;;;5.51;84.93
76060;BME280;64759;52.220;5.170;2023-01-31T06:20:24;102100.00;;;5.51;85.37
76060;BME280;64759;52.220;5.170;2023-01-31T06:22:50;102110.44;;;5.48;85.26
76060;BME280;64759;52.220;5.170;2023-01-31T06:25:16;102106.81;;;5.52;85.07
76060;BME280;64759;52.220;5.170;2023-01-31T06:27:41;102106.97;;;5.49;85.23
76060;BME280;64759;52.220;5.170;2023-01-31T06:30:07;102111.97;;;5.52;85.15
76060;BME280;64759;52.220;5.170;2023-01-31T06:32:33;102107.31;;;5.59;85.20
76060;BME280;64759;52.220;5.170;2023-01-31T06:34:58;102103.03;;;5.59;85.18
76060;BME280;64759;52.220;5.170;2023-01-31T06:37:24;102101.59;;;5.54;85.13
76060;BME280;64759;52.220;5.170;2023-01-31T06:39:49;102098.47;;;5.64;85.76
76060;BME280;64759;52.220;5.170;2023-01-31T06:42:14;102093.25;;;5.66;85.05
76060;BME280;64759;52.220;5.170;2023-01-31T06:44:40;102088.44;;;5.60;85.06
76060;BME280;64759;52.220;5.170;2023-01-31T06:47:05;102088.06;;;5.67;84.72
76060;BME280;64759;52.220;5.170;2023-01-31T06:49:30;102082.81;;;5.69;85.08
76060;BME280;64759;52.220;5.170;2023-01-31T06:51:56;102076.28;;;5.79;84.75
76060;BME280;64759;52.220;5.170;2023-01-31T06:54:21;102067.66;;;5.80;84.47
76060;BME280;64759;52.220;5.170;2023-01-31T06:56:48;102077.94;;;5.80;84.39
76060;BME280;64759;52.220;5.170;2023-01-31T06:59:13;102065.72;;;5.85;83.74
76060;BME280;64759;52.220;5.170;2023-01-31T07:01:39;102067.00;;;5.76;84.31
76060;BME280;64759;52.220;5.170;2023-01-31T07:04:04;102067.59;;;5.81;84.50
76060;BME280;64759;52.220;5.170;2023-01-31T07:06:30;102071.44;;;5.90;83.26
76060;BME280;64759;52.220;5.170;2023-01-31T07:08:55;102072.63;;;5.84;83.86
76060;BME280;64759;52.220;5.170;2023-01-31T07:11:20;102064.41;;;5.93;83.46
76060;BME280;64759;52.220;5.170;2023-01-31T07:13:46;102067.81;;;5.94;83.55
76060;BME280;64759;52.220;5.170;2023-01-31T07:16:13;102066.88;;;5.95;83.65
76060;BME280;64759;52.220;5.170;2023-01-31T07:18:41;102065.06;;;6.13;83.13
76060;BME280;64759;52.220;5.170;2023-01-31T07:21:06;102068.88;;;6.06;83.57
76060;BME280;64759;52.220;5.170;2023-01-31T07:23:32;102062.34;;;6.16;83.01
76060;BME280;64759;52.220;5.170;2023-01-31T07:25:57;102058.34;;;6.10;83.69
76060;BME280;64759;52.220;5.170;2023-01-31T07:28:22;102061.66;;;6.12;83.75
76060;BME280;64759;52.220;5.170;2023-01-31T07:30:48;102068.38;;;6.15;84.04
76060;BME280;64759;52.220;5.170;2023-01-31T07:33:15;102071.47;;;6.21;83.13
76060;BME280;64759;52.220;5.170;2023-01-31T07:35:41;102065.50;;;6.21;83.91
76060;BME280;64759;52.220;5.170;2023-01-31T07:38:07;102063.19;;;6.16;83.67
76060;BME280;64759;52.220;5.170;2023-01-31T07:40:32;102051.13;;;6.17;84.01
76060;BME280;64759;52.220;5.170;2023-01-31T07:42:58;102050.72;;;6.09;83.96
76060;BME280;64759;52.220;5.170;2023-01-31T07:45:24;102049.06;;;6.23;83.35
76060;BME280;64759;52.220;5.170;2023-01-31T07:47:50;102043.00;;;6.24;83.45
76060;BME280;64759;52.220;5.170;2023-01-31T07:50:16;102037.28;;;6.19;83.38
76060;BME280;64759;52.220;5.170;2023-01-31T07:52:41;102024.81;;;6.27;83.42
76060;BME280;64759;52.220;5.170;2023-01-31T07:55:07;102014.38;;;6.30;83.31
76060;BME280;64759;52.220;5.170;2023-01-31T07:57:32;102020.00;;;6.37;82.99
76060;BME280;64759;52.220;5.170;2023-01-31T07:59:58;102016.38;;;6.25;83.29
76060;BME280;64759;52.220;5.170;2023-01-31T08:02:23;102023.50;;;6.36;83.33
76060;BME280;64759;52.220;5.170;2023-01-31T08:05:24;102015.06;;;6.34;83.12
76060;BME280;64759;52.220;5.170;2023-01-31T08:07:49;102022.34;;;6.26;83.50
76060;BME280;64759;52.220;5.170;2023-01-31T08:10:34;102018.84;;;6.27;82.99
76060;BME280;64759;52.220;5.170;2023-01-31T08:12:59;101997.47;;;6.26;82.56
76060;BME280;64759;52.220;5.170;2023-01-31T08:15:25;101993.44;;;6.36;82.61
76060;BME280;64759;52.220;5.170;2023-01-31T08:17:50;101989.56;;;6.29;82.91
76060;BME280;64759;52.220;5.170;2023-01-31T08:20:16;101996.00;;;6.36;82.48
76060;BME280;64759;52.220;5.170;2023-01-31T08:22:43;101995.94;;;6.38;82.28
76060;BME280;64759;52.220;5.170;2023-01-31T08:25:08;101987.06;;;6.43;82.11
76060;BME280;64759;52.220;5.170;2023-01-31T08:27:34;101988.44;;;6.49;82.05
76060;BME280;64759;52.220;5.170;2023-01-31T08:29:59;101988.97;;;6.40;82.81
76060;BME280;64759;52.220;5.170;2023-01-31T08:32:24;101993.78;;;6.46;81.93
76060;BME280;64759;52.220;5.170;2023-01-31T08:34:50;102000.72;;;6.44;82.08
76060;BME280;64759;52.220;5.170;2023-01-31T08:37:15;101988.28;;;6.52;81.54
76060;BME280;64759;52.220;5.170;2023-01-31T08:39:40;101993.97;;;6.57;81.96
76060;BME280;64759;52.220;5.170;2023-01-31T08:42:08;101992.22;;;6.43;81.82
76060;BME280;64759;52.220;5.170;2023-01-31T08:44:33;101998.66;;;6.50;81.68
76060;BME280;64759;52.220;5.170;2023-01-31T08:47:02;101984.59;;;6.56;81.43
76060;BME280;64759;52.220;5.170;2023-01-31T08:49:27;101990.00;;;6.51;81.92
76060;BME280;64759;52.220;5.170;2023-01-31T08:51:53;102000.13;;;6.54;81.52
76060;BME280;64759;52.220;5.170;2023-01-31T08:54:18;102001.81;;;6.55;81.21
76060;BME280;64759;52.220;5.170;2023-01-31T08:56:43;102018.88;;;6.56;81.73
76060;BME280;64759;52.220;5.170;2023-01-31T08:59:09;102005.44;;;6.51;81.41
76060;BME280;64759;52.220;5.170;2023-01-31T09:01:35;101995.91;;;6.53;81.18
76060;BME280;64759;52.220;5.170;2023-01-31T09:04:01;101988.41;;;6.65;81.40
76060;BME280;64759;52.220;5.170;2023-01-31T09:06:26;101992.81;;;6.63;81.69
76060;BME280;64759;52.220;5.170;2023-01-31T09:08:52;101988.94;;;6.55;81.19
76060;BME280;64759;52.220;5.170;2023-01-31T09:11:17;101976.13;;;6.54;81.75
76060;BME280;64759;52.220;5.170;2023-01-31T09:13:47;101984.69;;;6.54;81.72
76060;BME280;64759;52.220;5.170;2023-01-31T09:16:15;101986.66;;;6.65;81.37
76060;BME280;64759;52.220;5.170;2023-01-31T09:18:41;101975.69;;;6.62;81.59
76060;BME280;64759;52.220;5.170;2023-01-31T09:21:16;101967.19;;;6.75;81.55
76060;BME280;64759;52.220;5.170;2023-01-31T09:23:42;101973.38;;;6.87;81.21
76060;BME280;64759;52.220;5.170;2023-01-31T09:26:07;101964.38;;;6.94;80.73
76060;BME280;64759;52.220;5.170;2023-01-31T09:28:33;101968.06;;;7.04;80.20
76060;BME280;64759;52.220;5.170;2023-01-31T09:31:03;101969.16;;;7.00;80.34
76060;BME280;64759;52.220;5.170;2023-01-31T09:33:30;101972.09;;;6.94;80.82
76060;BME280;64759;52.220;5.170;2023-01-31T09:35:58;101964.25;;;6.95;80.93
76060;BME280;64759;52.220;5.170;2023-01-31T09:38:24;101959.50;;;7.03;80.88
76060;BME280;64759;52.220;5.170;2023-01-31T09:40:51;101950.31;;;6.99;80.62
76060;BME280;64759;52.220;5.170;2023-01-31T09:43:18;101949.31;;;7.02;80.72
76060;BME280;64759;52.220;5.170;2023-01-31T09:45:47;101954.28;;;7.05;81.05
76060;BME280;64759;52.220;5.170;2023-01-31T09:48:20;101950.13;;;7.02;80.98
76060;BME280;64759;52.220;5.170;2023-01-31T09:50:52;101952.97;;;7.12;80.78
76060;BME280;64759;52.220;5.170;2023-01-31T09:53:22;101957.94;;;7.15;80.83
76060;BME280;64759;52.220;5.170;2023-01-31T10:01:23;101967.44;;;7.14;80.83
76060;BME280;64759;52.220;5.170;2023-01-31T10:04:08;101961.81;;;7.22;80.72
76060;BME280;64759;52.220;5.170;2023-01-31T10:06:44;101958.75;;;7.15;80.92
76060;BME280;64759;52.220;5.170;2023-01-31T10:09:26;101957.84;;;7.16;81.00
76060;BME280;64759;52.220;5.170;2023-01-31T10:12:35;101954.44;;;7.02;81.89
76060;BME280;64759;52.220;5.170;2023-01-31T10:14:46;101949.19;;;7.17;81.24
76060;BME280;64759;52.220;5.170;2023-01-31T10:25:51;101952.41;;;7.35;81.19
76060;BME280;64759;52.220;5.170;2023-01-31T10:31:05;101949.66;;;7.24;81.73
76060;BME280;64759;52.220;5.170;2023-01-31T10:36:22;101937.50;;;7.40;81.93
76060;BME280;64759;52.220;5.170;2023-01-31T10:39:03;101939.78;;;7.45;81.81
76060;BME280;64759;52.220;5.170;2023-01-31T10:41:38;101934.28;;;7.51;82.21
76060;BME280;64759;52.220;5.170;2023-01-31T10:44:12;101941.09;;;7.52;82.49
76060;BME280;64759;52.220;5.170;2023-01-31T10:46:41;101943.66;;;7.52;83.23
76060;BME280;64759;52.220;5.170;2023-01-31T10:49:08;101947.06;;;7.52;83.13
76060;BME280;64759;52.220;5.170;2023-01-31T10:51:48;101948.91;;;7.50;83.70
76060;BME280;64759;52.220;5.170;2023-01-31T10:54:33;101945.78;;;7.45;84.23
76060;BME280;64759;52.220;5.170;2023-01-31T10:57:00;101954.34;;;7.46;84.47
76060;BME280;64759;52.220;5.170;2023-01-31T10:59:29;101956.00;;;7.47;84.33
76060;BME280;64759;52.220;5.170;2023-01-31T11:01:58;101956.00;;;7.47;84.72
76060;BME280;64759;52.220;5.170;2023-01-31T11:04:28;101961.34;;;7.44;85.17
76060;BME280;64759;52.220;5.170;2023-01-31T11:06:54;101958.59;;;7.47;85.10
76060;BME280;64759;52.220;5.170;2023-01-31T11:09:23;101951.13;;;7.56;84.94
76060;BME280;64759;52.220;5.170;2023-01-31T11:11:57;101970.47;;;7.49;85.43
76060;BME280;64759;52.220;5.170;2023-01-31T11:14:23;101949.28;;;7.44;85.27
76060;BME280;64759;52.220;5.170;2023-01-31T11:16:56;101958.78;;;7.44;85.67
76060;BME280;64759;52.220;5.170;2023-01-31T11:19:33;101952.88;;;7.42;85.56
76060;BME280;64759;52.220;5.170;2023-01-31T11:21:59;101955.72;;;7.51;85.44
76060;BME280;64759;52.220;5.170;2023-01-31T11:24:28;101950.19;;;7.57;85.07
76060;BME280;64759;52.220;5.170;2023-01-31T11:27:05;101952.69;;;7.59;84.67
76060;BME280;64759;52.220;5.170;2023-01-31T11:29:47;101951.44;;;7.64;84.27
76060;BME280;64759;52.220;5.170;2023-01-31T11:32:22;101942.06;;;7.63;84.54
76060;BME280;64759;52.220;5.170;2023-01-31T11:35:00;101943.94;;;7.61;84.64
76060;BME280;64759;52.220;5.170;2023-01-31T11:37:28;101929.81;;;7.67;84.15
76060;BME280;64759;52.220;5.170;2023-01-31T11:39:59;101927.88;;;7.70;83.42
76060;BME280;64759;52.220;5.170;2023-01-31T11:42:26;101920.94;;;7.85;83.00
76060;BME280;64759;52.220;5.170;2023-01-31T11:45:02;101899.31;;;8.00;82.18
76060;BME280;64759;52.220;5.170;2023-01-31T11:47:49;101924.34;;;7.85;82.61
76060;BME280;64759;52.220;5.170;2023-01-31T11:50:21;101918.69;;;7.93;82.28
76060;BME280;64759;52.220;5.170;2023-01-31T11:52:59;101921.88;;;7.97;81.87
76060;BME280;64759;52.220;5.170;2023-01-31T11:55:26;101919.13;;;8.00;81.92
76060;BME280;64759;52.220;5.170;2023-01-31T11:57:58;101919.78;;;8.03;82.29
76060;BME280;64759;52.220;5.170;2023-01-31T12:00:27;101908.13;;;8.10;81.54
76060;BME280;64759;52.220;5.170;2023-01-31T12:03:06;101901.94;;;8.13;81.43
76060;BME280;64759;52.220;5.170;2023-01-31T12:05:38;101897.63;;;8.13;81.55
76060;BME280;64759;52.220;5.170;2023-01-31T12:08:26;101890.91;;;8.23;80.93
76060;BME280;64759;52.220;5.170;2023-01-31T12:10:51;101877.84;;;8.26;80.92
76060;BME280;64759;52.220;5.170;2023-01-31T12:13:19;101876.09;;;8.27;80.79
76060;BME280;64759;52.220;5.170;2023-01-31T12:15:50;101886.41;;;8.27;80.54
76060;BME280;64759;52.220;5.170;2023-01-31T12:18:24;101875.91;;;8.30;80.85
76060;BME280;64759;52.220;5.170;2023-01-31T12:21:07;101888.59;;;8.33;80.91
76060;BME280;64759;52.220;5.170;2023-01-31T12:27:10;101881.78;;;8.44;80.36
76060;BME280;64759;52.220;5.170;2023-01-31T12:29:55;101862.59;;;8.48;80.49
76060;BME280;64759;52.220;5.170;2023-01-31T12:32:48;101880.16;;;8.56;80.10
76060;BME280;64759;52.220;5.170;2023-01-31T12:40:39;101863.09;;;8.79;79.56
76060;BME280;64759;52.220;5.170;2023-01-31T12:54:00;101869.50;;;8.73;79.26
76060;BME280;64759;52.220;5.170;2023-01-31T12:57:00;101851.00;;;8.92;79.37
76060;BME280;64759;52.220;5.170;2023-01-31T13:02:51;101852.06;;;8.89;78.96
76060;BME280;64759;52.220;5.170;2023-01-31T13:08:26;101849.56;;;8.88;78.92
76060;BME280;64759;52.220;5.170;2023-01-31T13:13:36;101844.78;;;8.94;79.31
76060;BME280;64759;52.220;5.170;2023-01-31T13:16:18;101844.38;;;9.00;79.13
76060;BME280;64759;52.220;5.170;2023-01-31T13:18:46;101838.28;;;9.01;79.21
76060;BME280;64759;52.220;5.170;2023-01-31T13:21:16;101843.91;;;9.19;78.38
76060;BME280;64759;52.220;5.170;2023-01-31T13:23:49;101839.38;;;9.46;77.40
76060;BME280;64759;52.220;5.170;2023-01-31T13:26:20;101830.72;;;9.58;77.01
76060;BME280;64759;52.220;5.170;2023-01-31T13:28:58;101850.63;;;9.58;77.08
76060;BME280;64759;52.220;5.170;2023-01-31T13:31:27;101857.91;;;9.64;76.40
76060;BME280;64759;52.220;5.170;2023-01-31T13:33:58;101859.63;;;9.52;76.71
76060;BME280;64759;52.220;5.170;2023-01-31T13:36:35;101850.22;;;9.51;77.26
76060;BME280;64759;52.220;5.170;2023-01-31T13:39:08;101849.88;;;9.32;77.38
76060;BME280;64759;52.220;5.170;2023-01-31T13:41:39;101848.31;;;9.30;77.05
76060;BME280;64759;52.220;5.170;2023-01-31T13:44:04;101861.69;;;9.24;77.31
76060;BME280;64759;52.220;5.170;2023-01-31T13:46:39;101862.81;;;9.19;77.75
76060;BME280;64759;52.220;5.170;2023-01-31T13:49:37;101864.06;;;9.14;77.80
76060;BME280;64759;52.220;5.170;2023-01-31T13:52:14;101857.97;;;9.15;77.79
76060;BME280;64759;52.220;5.170;2023-01-31T13:54:48;101877.13;;;9.36;77.27
76060;BME280;64759;52.220;5.170;2023-01-31T13:57:24;101890.88;;;9.49;76.84
76060;BME280;64759;52.220;5.170;2023-01-31T13:59:53;101882.28;;;9.49;76.77
76060;BME280;64759;52.220;5.170;2023-01-31T14:02:20;101886.81;;;9.58;76.16
76060;BME280;64759;52.220;5.170;2023-01-31T14:04:47;101889.34;;;9.70;75.66
76060;BME280;64759;52.220;5.170;2023-01-31T14:07:20;101902.41;;;10.16;74.04
76060;BME280;64759;52.220;5.170;2023-01-31T14:14:54;101914.94;;;10.10;72.92
76060;BME280;64759;52.220;5.170;2023-01-31T14:22:32;101908.84;;;10.45;70.72
76060;BME280;64759;52.220;5.170;2023-01-31T14:25:40;101921.63;;;10.36;71.13
76060;BME280;64759;52.220;5.170;2023-01-31T14:28:09;101908.22;;;10.31;71.96
76060;BME280;64759;52.220;5.170;2023-01-31T14:30:40;101927.59;;;10.25;72.26
76060;BME280;64759;52.220;5.170;2023-01-31T14:52:27;101927.19;;;10.42;71.12
76060;BME280;64759;52.220;5.170;2023-01-31T14:57:46;101937.44;;;10.44;70.54
76060;BME280;64759;52.220;5.170;2023-01-31T15:11:01;101947.13;;;10.64;69.77